CheckWX is a tool to help pilots better visualize weather data.  It is not intended as a substitute for an official pre-flight weather briefing.

08:57:47 UTC

KGGG METAR
East Texas Regional Airport
Longview, Texas, USA
Current

1 hour ago

KGGG 060753Z AUTO 20015KT 10SM OVC018 18/14 A2993 RMK AO2 SLP133 T01780144
Observed
Dec-6 @ 07:53 UTC
Wind
  • 200° at 15 KTS
Visibility
10 SM
Flight Rules
MVFR
Cloud Levels
  • Overcast at 1,800' AGL
Temperature
18°C / 64°F
Dewpoint
14°C / 57°F
Humidity
78%
Altimeter
29.93" Hg
Pressure
1013.52 hPa
Previous

2 hours ago

KGGG 060653Z AUTO 19011KT 10SM OVC020 17/14 A2994 RMK AO2 SLP135 T01720139
Observed
Dec-6 @ 06:53 UTC
Wind
  • 190° at 11 KTS
Visibility
10 SM
Flight Rules
MVFR
Cloud Levels
  • Overcast at 2,000' AGL
Temperature
17°C / 63°F
Dewpoint
14°C / 57°F
Humidity
83%
Altimeter
29.94" Hg
Pressure
1013.92 hPa
Previous

3 hours ago

KGGG 060626Z AUTO 17009KT 10SM BKN021 17/14 A2994 RMK AO2 T01670139
Observed
Dec-6 @ 06:26 UTC
Wind
  • 170° at 9 KTS
Visibility
10 SM
Flight Rules
MVFR
Cloud Levels
  • Broken at 2,100' AGL
Temperature
17°C / 63°F
Dewpoint
14°C / 57°F
Humidity
83%
Altimeter
29.94" Hg
Pressure
1013.92 hPa